sensor_id;sensor_type;location;lat;lon;timestamp;temperature;humidity
5621;DHT22;2832;50.864;12.186;2023-12-20T00:00:28;12.30;99.90
5621;DHT22;2832;50.864;12.186;2023-12-20T00:03:08;12.20;99.90
5621;DHT22;2832;50.864;12.186;2023-12-20T00:05:46;12.20;99.90
5621;DHT22;2832;50.864;12.186;2023-12-20T00:08:19;12.20;99.90
5621;DHT22;2832;50.864;12.186;2023-12-20T00:10:52;12.30;99.90
5621;DHT22;2832;50.864;12.186;2023-12-20T00:13:24;12.30;99.90
5621;DHT22;2832;50.864;12.186;2023-12-20T00:15:52;12.40;99.90
5621;DHT22;2832;50.864;12.186;2023-12-20T00:18:32;12.50;99.90
5621;DHT22;2832;50.864;12.186;2023-12-20T00:21:05;12.50;99.90
5621;DHT22;2832;50.864;12.186;2023-12-20T00:23:34;12.50;99.90
5621;DHT22;2832;50.864;12.186;2023-12-20T00:26:10;12.60;99.90
5621;DHT22;2832;50.864;12.186;2023-12-20T00:28:46;12.60;99.90
5621;DHT22;2832;50.864;12.186;2023-12-20T00:31:23;12.60;99.90
5621;DHT22;2832;50.864;12.186;2023-12-20T00:33:54;12.50;99.90
5621;DHT22;2832;50.864;12.186;2023-12-20T00:36:29;12.50;99.90
5621;DHT22;2832;50.864;12.186;2023-12-20T00:39:02;12.40;99.90
5621;DHT22;2832;50.864;12.186;2023-12-20T00:41:54;12.40;99.90
5621;DHT22;2832;50.864;12.186;2023-12-20T00:44:27;12.40;99.90
5621;DHT22;2832;50.864;12.186;2023-12-20T00:46:54;12.30;99.90
5621;DHT22;2832;50.864;12.186;2023-12-20T00:49:31;12.30;99.90
5621;DHT22;2832;50.864;12.186;2023-12-20T00:51:58;12.30;99.90
5621;DHT22;2832;50.864;12.186;2023-12-20T00:54:37;12.30;99.90
5621;DHT22;2832;50.864;12.186;2023-12-20T00:57:06;12.30;99.90
5621;DHT22;2832;50.864;12.186;2023-12-20T00:59:56;12.20;99.90
5621;DHT22;2832;50.864;12.186;2023-12-20T01:02:26;12.20;99.90
5621;DHT22;2832;50.864;12.186;2023-12-20T01:04:58;12.20;99.90
5621;DHT22;2832;50.864;12.186;2023-12-20T01:07:29;12.20;99.90
5621;DHT22;2832;50.864;12.186;2023-12-20T01:09:58;12.20;99.90
5621;DHT22;2832;50.864;12.186;2023-12-20T01:12:33;12.30;99.90
5621;DHT22;2832;50.864;12.186;2023-12-20T01:15:07;12.30;99.90
5621;DHT22;2832;50.864;12.186;2023-12-20T01:17:42;12.40;99.90
5621;DHT22;2832;50.864;12.186;2023-12-20T01:20:11;12.50;99.90
5621;DHT22;2832;50.864;12.186;2023-12-20T01:22:44;12.50;99.90
5621;DHT22;2832;50.864;12.186;2023-12-20T01:25:25;12.50;99.90
5621;DHT22;2832;50.864;12.186;2023-12-20T01:27:53;12.50;99.90
5621;DHT22;2832;50.864;12.186;2023-12-20T01:30:22;12.50;99.90
5621;DHT22;2832;50.864;12.186;2023-12-20T01:32:53;12.40;99.90
5621;DHT22;2832;50.864;12.186;2023-12-20T01:35:30;12.40;99.90
5621;DHT22;2832;50.864;12.186;2023-12-20T01:38:16;12.30;99.90
5621;DHT22;2832;50.864;12.186;2023-12-20T01:40:46;12.30;99.90
5621;DHT22;2832;50.864;12.186;2023-12-20T01:43:14;12.30;99.90
5621;DHT22;2832;50.864;12.186;2023-12-20T01:45:45;12.20;99.90
5621;DHT22;2832;50.864;12.186;2023-12-20T01:48:17;12.20;99.90
5621;DHT22;2832;50.864;12.186;2023-12-20T01:50:45;12.10;99.90
5621;DHT22;2832;50.864;12.186;2023-12-20T01:53:25;12.10;99.90
5621;DHT22;2832;50.864;12.186;2023-12-20T01:55:58;12.10;99.90
5621;DHT22;2832;50.864;12.186;2023-12-20T01:58:26;12.10;99.90
5621;DHT22;2832;50.864;12.186;2023-12-20T02:01:01;12.10;99.90
5621;DHT22;2832;50.864;12.186;2023-12-20T02:03:35;12.10;99.90
5621;DHT22;2832;50.864;12.186;2023-12-20T02:06:10;12.20;99.90
5621;DHT22;2832;50.864;12.186;2023-12-20T02:08:41;12.30;99.90
5621;DHT22;2832;50.864;12.186;2023-12-20T02:11:14;12.30;99.90
5621;DHT22;2832;50.864;12.186;2023-12-20T02:13:55;12.40;99.90
5621;DHT22;2832;50.864;12.186;2023-12-20T02:16:30;12.40;99.90
5621;DHT22;2832;50.864;12.186;2023-12-20T02:19:13;12.50;99.90
5621;DHT22;2832;50.864;12.186;2023-12-20T02:22:05;12.50;99.90
5621;DHT22;2832;50.864;12.186;2023-12-20T02:24:37;12.40;99.90
5621;DHT22;2832;50.864;12.186;2023-12-20T02:27:06;12.40;99.90
5621;DHT22;2832;50.864;12.186;2023-12-20T02:29:37;12.30;99.90
5621;DHT22;2832;50.864;12.186;2023-12-20T02:32:17;12.30;99.90
5621;DHT22;2832;50.864;12.186;2023-12-20T02:34:58;12.30;99.90
5621;DHT22;2832;50.864;12.186;2023-12-20T02:37:41;12.20;99.90
5621;DHT22;2832;50.864;12.186;2023-12-20T02:40:23;12.20;99.90
5621;DHT22;2832;50.864;12.186;2023-12-20T02:43:20;12.10;99.90
5621;DHT22;2832;50.864;12.186;2023-12-20T02:45:58;12.10;99.90
5621;DHT22;2832;50.864;12.186;2023-12-20T02:48:42;12.10;99.90
5621;DHT22;2832;50.864;12.186;2023-12-20T02:51:17;12.10;99.90
5621;DHT22;2832;50.864;12.186;2023-12-20T02:53:57;12.00;99.90
5621;DHT22;2832;50.864;12.186;2023-12-20T02:56:25;12.10;99.90
5621;DHT22;2832;50.864;12.186;2023-12-20T02:59:03;12.10;99.90
5621;DHT22;2832;50.864;12.186;2023-12-20T03:01:35;12.20;99.90
5621;DHT22;2832;50.864;12.186;2023-12-20T03:04:13;12.20;99.90
5621;DHT22;2832;50.864;12.186;2023-12-20T03:10:05;12.30;99.90
5621;DHT22;2832;50.864;12.186;2023-12-20T03:12:51;12.40;99.90
5621;DHT22;2832;50.864;12.186;2023-12-20T03:15:24;12.40;99.90
5621;DHT22;2832;50.864;12.186;2023-12-20T03:18:15;12.30;99.90
5621;DHT22;2832;50.864;12.186;2023-12-20T03:20:49;12.30;99.90
5621;DHT22;2832;50.864;12.186;2023-12-20T03:23:23;12.30;99.90
5621;DHT22;2832;50.864;12.186;2023-12-20T03:25:59;12.30;99.90
5621;DHT22;2832;50.864;12.186;2023-12-20T03:28:31;12.20;99.90
5621;DHT22;2832;50.864;12.186;2023-12-20T03:31:00;12.20;99.90
5621;DHT22;2832;50.864;12.186;2023-12-20T03:33:50;12.20;99.90
5621;DHT22;2832;50.864;12.186;2023-12-20T03:36:28;12.20;99.90
5621;DHT22;2832;50.864;12.186;2023-12-20T03:38:57;12.20;99.90
5621;DHT22;2832;50.864;12.186;2023-12-20T03:41:34;12.10;99.90
5621;DHT22;2832;50.864;12.186;2023-12-20T03:44:06;12.00;99.90
5621;DHT22;2832;50.864;12.186;2023-12-20T03:46:49;12.00;99.90
5621;DHT22;2832;50.864;12.186;2023-12-20T03:49:26;12.00;99.90
5621;DHT22;2832;50.864;12.186;2023-12-20T03:52:10;12.00;99.90
5621;DHT22;2832;50.864;12.186;2023-12-20T03:54:39;12.00;99.90
5621;DHT22;2832;50.864;12.186;2023-12-20T03:57:12;12.10;99.90
5621;DHT22;2832;50.864;12.186;2023-12-20T03:59:44;12.20;99.90
5621;DHT22;2832;50.864;12.186;2023-12-20T04:02:25;12.30;99.90
5621;DHT22;2832;50.864;12.186;2023-12-20T04:04:53;12.30;99.90
5621;DHT22;2832;50.864;12.186;2023-12-20T04:07:33;12.30;99.90
5621;DHT22;2832;50.864;12.186;2023-12-20T04:10:12;12.30;99.90
5621;DHT22;2832;50.864;12.186;2023-12-20T04:12:50;12.30;99.90
5621;DHT22;2832;50.864;12.186;2023-12-20T04:15:26;12.20;99.90
5621;DHT22;2832;50.864;12.186;2023-12-20T04:18:02;12.30;99.90
5621;DHT22;2832;50.864;12.186;2023-12-20T04:20:36;12.20;99.90
5621;DHT22;2832;50.864;12.186;2023-12-20T04:23:05;12.20;99.90
5621;DHT22;2832;50.864;12.186;2023-12-20T04:25:38;12.20;99.90
5621;DHT22;2832;50.864;12.186;2023-12-20T04:28:20;12.10;99.90
5621;DHT22;2832;50.864;12.186;2023-12-20T04:30:49;12.00;99.90
5621;DHT22;2832;50.864;12.186;2023-12-20T04:33:26;11.90;99.90
5621;DHT22;2832;50.864;12.186;2023-12-20T04:36:03;11.80;99.90
5621;DHT22;2832;50.864;12.186;2023-12-20T04:38:42;11.70;99.90
5621;DHT22;2832;50.864;12.186;2023-12-20T04:41:21;11.70;99.90
5621;DHT22;2832;50.864;12.186;2023-12-20T04:43:56;11.60;99.90
5621;DHT22;2832;50.864;12.186;2023-12-20T04:46:29;11.50;99.90
5621;DHT22;2832;50.864;12.186;2023-12-20T04:49:08;11.40;99.90
5621;DHT22;2832;50.864;12.186;2023-12-20T04:52:05;11.40;99.90
5621;DHT22;2832;50.864;12.186;2023-12-20T04:54:34;11.30;99.90
5621;DHT22;2832;50.864;12.186;2023-12-20T04:57:03;11.20;99.90
5621;DHT22;2832;50.864;12.186;2023-12-20T04:59:32;11.20;99.90
5621;DHT22;2832;50.864;12.186;2023-12-20T05:02:25;11.20;99.90
5621;DHT22;2832;50.864;12.186;2023-12-20T05:04:53;11.20;99.90
5621;DHT22;2832;50.864;12.186;2023-12-20T05:07:27;11.20;99.90
5621;DHT22;2832;50.864;12.186;2023-12-20T05:10:20;11.10;99.90
5621;DHT22;2832;50.864;12.186;2023-12-20T05:13:07;11.10;99.90
5621;DHT22;2832;50.864;12.186;2023-12-20T05:15:56;11.10;99.90
5621;DHT22;2832;50.864;12.186;2023-12-20T05:18:29;11.10;99.90
5621;DHT22;2832;50.864;12.186;2023-12-20T05:21:01;11.10;99.90
5621;DHT22;2832;50.864;12.186;2023-12-20T05:23:33;11.10;99.90
5621;DHT22;2832;50.864;12.186;2023-12-20T05:26:01;11.00;99.90
5621;DHT22;2832;50.864;12.186;2023-12-20T05:28:29;11.10;99.90
5621;DHT22;2832;50.864;12.186;2023-12-20T05:30:58;11.00;99.90
5621;DHT22;2832;50.864;12.186;2023-12-20T05:33:32;11.00;99.90
5621;DHT22;2832;50.864;12.186;2023-12-20T05:36:00;11.00;99.90
5621;DHT22;2832;50.864;12.186;2023-12-20T05:38:43;11.00;99.90
5621;DHT22;2832;50.864;12.186;2023-12-20T05:41:14;11.00;99.90
5621;DHT22;2832;50.864;12.186;2023-12-20T05:43:42;11.00;99.90
5621;DHT22;2832;50.864;12.186;2023-12-20T05:46:23;11.00;99.90
5621;DHT22;2832;50.864;12.186;2023-12-20T05:48:50;10.90;99.90
5621;DHT22;2832;50.864;12.186;2023-12-20T05:51:18;10.90;99.90
5621;DHT22;2832;50.864;12.186;2023-12-20T05:53:51;10.90;99.90
5621;DHT22;2832;50.864;12.186;2023-12-20T05:56:19;10.90;99.90
5621;DHT22;2832;50.864;12.186;2023-12-20T05:58:50;10.90;99.90
5621;DHT22;2832;50.864;12.186;2023-12-20T06:01:26;10.90;99.90
5621;DHT22;2832;50.864;12.186;2023-12-20T06:03:57;10.90;99.90
5621;DHT22;2832;50.864;12.186;2023-12-20T06:06:27;10.80;99.90
5621;DHT22;2832;50.864;12.186;2023-12-20T06:09:03;10.80;99.90
5621;DHT22;2832;50.864;12.186;2023-12-20T06:11:40;10.80;99.90
5621;DHT22;2832;50.864;12.186;2023-12-20T06:14:11;10.80;99.90
5621;DHT22;2832;50.864;12.186;2023-12-20T06:16:41;10.80;99.90
5621;DHT22;2832;50.864;12.186;2023-12-20T06:19:09;10.80;99.90
5621;DHT22;2832;50.864;12.186;2023-12-20T06:21:38;10.90;99.90
5621;DHT22;2832;50.864;12.186;2023-12-20T06:24:15;10.90;99.90
5621;DHT22;2832;50.864;12.186;2023-12-20T06:26:42;10.80;99.90
5621;DHT22;2832;50.864;12.186;2023-12-20T06:29:20;10.80;99.90
5621;DHT22;2832;50.864;12.186;2023-12-20T06:32:24;10.80;99.90
5621;DHT22;2832;50.864;12.186;2023-12-20T06:34:52;10.80;99.90
5621;DHT22;2832;50.864;12.186;2023-12-20T06:37:20;10.70;99.90
5621;DHT22;2832;50.864;12.186;2023-12-20T06:43:35;10.80;99.90
5621;DHT22;2832;50.864;12.186;2023-12-20T06:46:08;10.80;99.90
5621;DHT22;2832;50.864;12.186;2023-12-20T06:48:39;10.80;99.90
5621;DHT22;2832;50.864;12.186;2023-12-20T06:51:12;10.80;99.90
5621;DHT22;2832;50.864;12.186;2023-12-20T06:53:43;10.80;99.90
5621;DHT22;2832;50.864;12.186;2023-12-20T06:56:17;10.80;99.90
5621;DHT22;2832;50.864;12.186;2023-12-20T06:58:45;10.80;99.90
5621;DHT22;2832;50.864;12.186;2023-12-20T07:01:19;10.80;99.90
5621;DHT22;2832;50.864;12.186;2023-12-20T07:03:53;10.80;99.90
5621;DHT22;2832;50.864;12.186;2023-12-20T07:06:22;10.80;99.90
5621;DHT22;2832;50.864;12.186;2023-12-20T07:08:52;10.80;99.90
5621;DHT22;2832;50.864;12.186;2023-12-20T07:11:22;10.80;99.90
5621;DHT22;2832;50.864;12.186;2023-12-20T07:13:52;10.70;99.90
5621;DHT22;2832;50.864;12.186;2023-12-20T07:20:14;10.80;99.90
5621;DHT22;2832;50.864;12.186;2023-12-20T07:22:53;10.70;99.90
5621;DHT22;2832;50.864;12.186;2023-12-20T07:25:21;10.70;99.90
5621;DHT22;2832;50.864;12.186;2023-12-20T07:27:55;10.70;99.90
5621;DHT22;2832;50.864;12.186;2023-12-20T07:30:25;10.70;99.90
5621;DHT22;2832;50.864;12.186;2023-12-20T07:32:59;10.70;99.90
5621;DHT22;2832;50.864;12.186;2023-12-20T07:35:40;10.70;99.90
5621;DHT22;2832;50.864;12.186;2023-12-20T07:38:12;10.70;99.90
5621;DHT22;2832;50.864;12.186;2023-12-20T07:40:49;10.70;99.90
5621;DHT22;2832;50.864;12.186;2023-12-20T07:43:19;10.70;99.90
5621;DHT22;2832;50.864;12.186;2023-12-20T07:45:52;10.70;99.90
5621;DHT22;2832;50.864;12.186;2023-12-20T07:48:21;10.70;99.90
5621;DHT22;2832;50.864;12.186;2023-12-20T07:50:53;10.70;99.90
5621;DHT22;2832;50.864;12.186;2023-12-20T07:53:25;10.70;99.90
5621;DHT22;2832;50.864;12.186;2023-12-20T07:56:15;10.70;99.90
5621;DHT22;2832;50.864;12.186;2023-12-20T07:58:55;10.70;99.90
5621;DHT22;2832;50.864;12.186;2023-12-20T08:01:27;10.70;99.90
5621;DHT22;2832;50.864;12.186;2023-12-20T08:03:58;10.70;99.90
5621;DHT22;2832;50.864;12.186;2023-12-20T08:06:30;10.70;99.90
5621;DHT22;2832;50.864;12.186;2023-12-20T08:08:59;10.70;99.90
5621;DHT22;2832;50.864;12.186;2023-12-20T08:11:33;10.70;99.90
5621;DHT22;2832;50.864;12.186;2023-12-20T08:14:04;10.70;99.90
5621;DHT22;2832;50.864;12.186;2023-12-20T08:16:32;10.70;99.90
5621;DHT22;2832;50.864;12.186;2023-12-20T08:19:02;10.60;99.90
5621;DHT22;2832;50.864;12.186;2023-12-20T08:21:39;10.60;99.90
5621;DHT22;2832;50.864;12.186;2023-12-20T08:24:16;10.60;99.90
5621;DHT22;2832;50.864;12.186;2023-12-20T08:26:48;10.60;99.90
5621;DHT22;2832;50.864;12.186;2023-12-20T08:29:16;10.60;99.90
5621;DHT22;2832;50.864;12.186;2023-12-20T08:31:52;10.60;99.90
5621;DHT22;2832;50.864;12.186;2023-12-20T08:34:20;10.60;99.90
5621;DHT22;2832;50.864;12.186;2023-12-20T08:36:50;10.60;99.90
5621;DHT22;2832;50.864;12.186;2023-12-20T08:39:19;10.60;99.90
5621;DHT22;2832;50.864;12.186;2023-12-20T08:41:47;10.60;99.90
5621;DHT22;2832;50.864;12.186;2023-12-20T08:44:15;10.60;99.90
5621;DHT22;2832;50.864;12.186;2023-12-20T08:46:47;10.60;99.90
5621;DHT22;2832;50.864;12.186;2023-12-20T08:52:32;10.60;99.90
5621;DHT22;2832;50.864;12.186;2023-12-20T08:55:13;10.60;99.90
5621;DHT22;2832;50.864;12.186;2023-12-20T08:57:48;10.60;99.90
5621;DHT22;2832;50.864;12.186;2023-12-20T09:00:26;10.60;99.90
5621;DHT22;2832;50.864;12.186;2023-12-20T09:03:35;10.60;99.90
5621;DHT22;2832;50.864;12.186;2023-12-20T09:06:03;10.60;99.90
5621;DHT22;2832;50.864;12.186;2023-12-20T09:08:33;10.60;99.90
5621;DHT22;2832;50.864;12.186;2023-12-20T09:11:02;10.60;99.90
5621;DHT22;2832;50.864;12.186;2023-12-20T09:13:41;10.60;99.90
5621;DHT22;2832;50.864;12.186;2023-12-20T09:16:12;10.60;99.90
5621;DHT22;2832;50.864;12.186;2023-12-20T09:18:59;10.60;99.90
5621;DHT22;2832;50.864;12.186;2023-12-20T09:21:27;10.50;99.90
5621;DHT22;2832;50.864;12.186;2023-12-20T09:23:58;10.50;99.90
5621;DHT22;2832;50.864;12.186;2023-12-20T09:26:32;10.50;99.90
5621;DHT22;2832;50.864;12.186;2023-12-20T09:29:20;10.60;99.90
5621;DHT22;2832;50.864;12.186;2023-12-20T09:31:51;10.50;99.90
5621;DHT22;2832;50.864;12.186;2023-12-20T09:34:18;10.50;99.90
5621;DHT22;2832;50.864;12.186;2023-12-20T09:37:10;10.50;99.90
5621;DHT22;2832;50.864;12.186;2023-12-20T09:39:43;10.50;99.90
5621;DHT22;2832;50.864;12.186;2023-12-20T09:42:12;10.50;99.90
5621;DHT22;2832;50.864;12.186;2023-12-20T09:44:47;10.50;99.90
5621;DHT22;2832;50.864;12.186;2023-12-20T09:47:20;10.50;99.90
5621;DHT22;2832;50.864;12.186;2023-12-20T09:49:55;10.50;99.90
5621;DHT22;2832;50.864;12.186;2023-12-20T09:52:30;10.50;99.90
5621;DHT22;2832;50.864;12.186;2023-12-20T09:55:03;10.50;99.90
5621;DHT22;2832;50.864;12.186;2023-12-20T09:57:48;10.50;99.90
5621;DHT22;2832;50.864;12.186;2023-12-20T10:00:47;10.60;99.90
5621;DHT22;2832;50.864;12.186;2023-12-20T10:03:25;10.60;99.90
5621;DHT22;2832;50.864;12.186;2023-12-20T10:05:57;10.60;99.90
5621;DHT22;2832;50.864;12.186;2023-12-20T10:08:35;10.60;99.90
5621;DHT22;2832;50.864;12.186;2023-12-20T10:11:16;10.60;99.90
5621;DHT22;2832;50.864;12.186;2023-12-20T10:13:47;10.60;99.90
5621;DHT22;2832;50.864;12.186;2023-12-20T10:16:18;10.60;99.90
5621;DHT22;2832;50.864;12.186;2023-12-20T10:18:57;10.60;99.90
5621;DHT22;2832;50.864;12.186;2023-12-20T10:21:30;10.60;99.90
5621;DHT22;2832;50.864;12.186;2023-12-20T10:23:58;10.60;99.90
5621;DHT22;2832;50.864;12.186;2023-12-20T10:26:35;10.60;99.90
5621;DHT22;2832;50.864;12.186;2023-12-20T10:29:05;10.60;99.90
5621;DHT22;2832;50.864;12.186;2023-12-20T10:31:42;10.60;99.90
5621;DHT22;2832;50.864;12.186;2023-12-20T10:34:12;10.60;99.90
5621;DHT22;2832;50.864;12.186;2023-12-20T10:39:15;10.60;99.90
5621;DHT22;2832;50.864;12.186;2023-12-20T10:41:48;10.60;99.90
5621;DHT22;2832;50.864;12.186;2023-12-20T10:44:27;10.60;99.90
5621;DHT22;2832;50.864;12.186;2023-12-20T10:46:58;10.60;99.90
5621;DHT22;2832;50.864;12.186;2023-12-20T10:49:36;10.60;99.90
5621;DHT22;2832;50.864;12.186;2023-12-20T10:52:12;10.60;99.90
5621;DHT22;2832;50.864;12.186;2023-12-20T10:54:41;10.60;99.90
5621;DHT22;2832;50.864;12.186;2023-12-20T10:57:22;10.60;99.90
5621;DHT22;2832;50.864;12.186;2023-12-20T10:59:55;10.70;99.90
5621;DHT22;2832;50.864;12.186;2023-12-20T11:02:28;10.70;99.90
5621;DHT22;2832;50.864;12.186;2023-12-20T11:05:26;10.70;99.90
5621;DHT22;2832;50.864;12.186;2023-12-20T11:08:07;10.70;99.90
5621;DHT22;2832;50.864;12.186;2023-12-20T11:10:48;10.70;99.90
5621;DHT22;2832;50.864;12.186;2023-12-20T11:13:31;10.70;99.90
5621;DHT22;2832;50.864;12.186;2023-12-20T11:16:05;10.70;99.90
5621;DHT22;2832;50.864;12.186;2023-12-20T11:18:37;10.70;99.90
5621;DHT22;2832;50.864;12.186;2023-12-20T11:21:11;10.70;99.90
5621;DHT22;2832;50.864;12.186;2023-12-20T11:23:44;10.70;99.90
5621;DHT22;2832;50.864;12.186;2023-12-20T11:30:45;10.70;99.90
5621;DHT22;2832;50.864;12.186;2023-12-20T11:33:17;10.70;99.90
5621;DHT22;2832;50.864;12.186;2023-12-20T11:35:48;10.70;99.90
5621;DHT22;2832;50.864;12.186;2023-12-20T11:38:22;10.70;99.90
5621;DHT22;2832;50.864;12.186;2023-12-20T11:40:54;10.70;99.90
5621;DHT22;2832;50.864;12.186;2023-12-20T11:43:38;10.70;99.90
5621;DHT22;2832;50.864;12.186;2023-12-20T11:46:09;10.80;99.90
5621;DHT22;2832;50.864;12.186;2023-12-20T11:48:40;10.80;99.90
5621;DHT22;2832;50.864;12.186;2023-12-20T11:51:14;10.80;99.90
5621;DHT22;2832;50.864;12.186;2023-12-20T11:53:42;10.80;99.90
5621;DHT22;2832;50.864;12.186;2023-12-20T11:56:22;10.80;99.90
5621;DHT22;2832;50.864;12.186;2023-12-20T11:59:01;10.80;99.90
5621;DHT22;2832;50.864;12.186;2023-12-20T12:01:31;10.90;99.90
5621;DHT22;2832;50.864;12.186;2023-12-20T12:04:04;10.90;99.90
5621;DHT22;2832;50.864;12.186;2023-12-20T12:06:32;10.90;99.90
5621;DHT22;2832;50.864;12.186;2023-12-20T12:09:03;10.90;99.90
5621;DHT22;2832;50.864;12.186;2023-12-20T12:11:40;10.90;99.90
5621;DHT22;2832;50.864;12.186;2023-12-20T12:14:34;10.90;99.90
5621;DHT22;2832;50.864;12.186;2023-12-20T12:17:10;10.90;99.90
5621;DHT22;2832;50.864;12.186;2023-12-20T12:19:42;10.90;99.90
5621;DHT22;2832;50.864;12.186;2023-12-20T12:22:14;10.90;99.90
5621;DHT22;2832;50.864;12.186;2023-12-20T12:24:58;10.90;99.90
5621;DHT22;2832;50.864;12.186;2023-12-20T12:27:28;11.00;99.90
5621;DHT22;2832;50.864;12.186;2023-12-20T12:30:01;11.00;99.90
5621;DHT22;2832;50.864;12.186;2023-12-20T12:32:41;11.00;99.90
5621;DHT22;2832;50.864;12.186;2023-12-20T12:35:15;11.00;99.90
5621;DHT22;2832;50.864;12.186;2023-12-20T12:38:44;11.00;99.90
5621;DHT22;2832;50.864;12.186;2023-12-20T12:41:26;11.00;99.90
5621;DHT22;2832;50.864;12.186;2023-12-20T12:43:56;11.10;99.90
5621;DHT22;2832;50.864;12.186;2023-12-20T12:46:26;11.10;99.90
5621;DHT22;2832;50.864;12.186;2023-12-20T12:49:05;11.10;99.90
5621;DHT22;2832;50.864;12.186;2023-12-20T12:51:36;11.10;99.90
5621;DHT22;2832;50.864;12.186;2023-12-20T12:54:06;11.10;99.90
5621;DHT22;2832;50.864;12.186;2023-12-20T12:56:35;11.10;99.90
5621;DHT22;2832;50.864;12.186;2023-12-20T12:59:06;11.10;99.90
5621;DHT22;2832;50.864;12.186;2023-12-20T13:01:34;11.10;99.90
5621;DHT22;2832;50.864;12.186;2023-12-20T13:04:20;11.10;99.90
5621;DHT22;2832;50.864;12.186;2023-12-20T13:07:04;11.10;99.90
5621;DHT22;2832;50.864;12.186;2023-12-20T13:09:34;11.10;99.90
5621;DHT22;2832;50.864;12.186;2023-12-20T13:12:07;11.10;99.90
5621;DHT22;2832;50.864;12.186;2023-12-20T13:14:43;11.20;99.90
5621;DHT22;2832;50.864;12.186;2023-12-20T13:17:16;11.10;99.90
5621;DHT22;2832;50.864;12.186;2023-12-20T13:19:49;11.20;99.90
5621;DHT22;2832;50.864;12.186;2023-12-20T13:22:18;11.20;99.90
5621;DHT22;2832;50.864;12.186;2023-12-20T13:24:59;11.20;99.90
5621;DHT22;2832;50.864;12.186;2023-12-20T13:27:36;11.30;99.90
5621;DHT22;2832;50.864;12.186;2023-12-20T13:30:09;11.30;99.90
5621;DHT22;2832;50.864;12.186;2023-12-20T13:32:40;11.30;99.90
5621;DHT22;2832;50.864;12.186;2023-12-20T13:35:13;11.30;99.90
5621;DHT22;2832;50.864;12.186;2023-12-20T13:37:44;11.30;99.90
5621;DHT22;2832;50.864;12.186;2023-12-20T13:40:22;11.40;99.90
5621;DHT22;2832;50.864;12.186;2023-12-20T13:42:51;11.40;99.90
5621;DHT22;2832;50.864;12.186;2023-12-20T13:45:20;11.40;99.90
5621;DHT22;2832;50.864;12.186;2023-12-20T13:48:00;11.40;99.90
5621;DHT22;2832;50.864;12.186;2023-12-20T13:50:41;11.40;99.90
5621;DHT22;2832;50.864;12.186;2023-12-20T13:53:19;11.40;99.90
5621;DHT22;2832;50.864;12.186;2023-12-20T13:55:57;11.50;99.90
5621;DHT22;2832;50.864;12.186;2023-12-20T13:58:29;11.40;99.90
5621;DHT22;2832;50.864;12.186;2023-12-20T14:01:06;11.50;99.90
5621;DHT22;2832;50.864;12.186;2023-12-20T14:03:57;11.40;99.90
5621;DHT22;2832;50.864;12.186;2023-12-20T14:06:27;11.50;99.90
5621;DHT22;2832;50.864;12.186;2023-12-20T14:08:56;11.50;99.90
5621;DHT22;2832;50.864;12.186;2023-12-20T14:11:35;11.50;99.90
5621;DHT22;2832;50.864;12.186;2023-12-20T14:14:23;11.50;99.90
5621;DHT22;2832;50.864;12.186;2023-12-20T14:16:52;11.50;99.90
5621;DHT22;2832;50.864;12.186;2023-12-20T14:19:23;11.50;99.90
5621;DHT22;2832;50.864;12.186;2023-12-20T14:21:55;11.50;99.90
5621;DHT22;2832;50.864;12.186;2023-12-20T14:24:29;11.50;99.90
5621;DHT22;2832;50.864;12.186;2023-12-20T14:27:01;11.50;99.90
5621;DHT22;2832;50.864;12.186;2023-12-20T14:29:35;11.60;99.90
5621;DHT22;2832;50.864;12.186;2023-12-20T14:32:08;11.60;99.90
5621;DHT22;2832;50.864;12.186;2023-12-20T14:34:44;11.60;99.90
5621;DHT22;2832;50.864;12.186;2023-12-20T14:37:35;11.50;99.90
5621;DHT22;2832;50.864;12.186;2023-12-20T14:40:09;11.50;99.90
5621;DHT22;2832;50.864;12.186;2023-12-20T14:43:11;11.50;99.90
5621;DHT22;2832;50.864;12.186;2023-12-20T14:45:48;11.50;99.90
5621;DHT22;2832;50.864;12.186;2023-12-20T14:48:17;11.50;99.90
5621;DHT22;2832;50.864;12.186;2023-12-20T14:50:47;11.50;99.90
5621;DHT22;2832;50.864;12.186;2023-12-20T14:53:20;11.50;99.90
5621;DHT22;2832;50.864;12.186;2023-12-20T14:55:50;11.50;99.90
5621;DHT22;2832;50.864;12.186;2023-12-20T14:58:36;11.50;99.90
5621;DHT22;2832;50.864;12.186;2023-12-20T15:04:20;11.50;99.90
5621;DHT22;2832;50.864;12.186;2023-12-20T15:06:56;11.50;99.90
5621;DHT22;2832;50.864;12.186;2023-12-20T15:09:27;11.50;99.90
5621;DHT22;2832;50.864;12.186;2023-12-20T15:11:56;11.60;99.90
5621;DHT22;2832;50.864;12.186;2023-12-20T15:14:26;11.60;99.90
5621;DHT22;2832;50.864;12.186;2023-12-20T15:16:54;11.60;99.90
5621;DHT22;2832;50.864;12.186;2023-12-20T15:19:22;11.60;99.90
5621;DHT22;2832;50.864;12.186;2023-12-20T15:22:07;11.60;99.90
5621;DHT22;2832;50.864;12.186;2023-12-20T15:24:40;11.70;99.90
5621;DHT22;2832;50.864;12.186;2023-12-20T15:27:12;11.60;99.90
5621;DHT22;2832;50.864;12.186;2023-12-20T15:29:40;11.60;99.90
5621;DHT22;2832;50.864;12.186;2023-12-20T15:32:11;11.60;99.90
5621;DHT22;2832;50.864;12.186;2023-12-20T15:34:47;11.60;99.90
5621;DHT22;2832;50.864;12.186;2023-12-20T15:37:28;11.60;99.90
5621;DHT22;2832;50.864;12.186;2023-12-20T15:40:02;11.60;99.90
5621;DHT22;2832;50.864;12.186;2023-12-20T15:42:55;11.60;99.90
5621;DHT22;2832;50.864;12.186;2023-12-20T15:45:48;11.60;99.90
5621;DHT22;2832;50.864;12.186;2023-12-20T15:48:31;11.60;99.90
5621;DHT22;2832;50.864;12.186;2023-12-20T15:51:57;11.60;99.90
5621;DHT22;2832;50.864;12.186;2023-12-20T15:54:25;11.60;99.90
5621;DHT22;2832;50.864;12.186;2023-12-20T15:57:07;11.60;99.90
5621;DHT22;2832;50.864;12.186;2023-12-20T15:59:42;11.60;99.90
5621;DHT22;2832;50.864;12.186;2023-12-20T16:02:15;11.60;99.90
5621;DHT22;2832;50.864;12.186;2023-12-20T16:04:46;11.60;99.90
5621;DHT22;2832;50.864;12.186;2023-12-20T16:07:33;11.70;99.90
5621;DHT22;2832;50.864;12.186;2023-12-20T16:10:03;11.60;99.90
5621;DHT22;2832;50.864;12.186;2023-12-20T16:12:39;11.60;99.90
5621;DHT22;2832;50.864;12.186;2023-12-20T16:15:08;11.60;99.90
5621;DHT22;2832;50.864;12.186;2023-12-20T16:17:36;11.70;99.90
5621;DHT22;2832;50.864;12.186;2023-12-20T16:20:08;11.70;99.90
5621;DHT22;2832;50.864;12.186;2023-12-20T16:22:44;11.70;99.90
5621;DHT22;2832;50.864;12.186;2023-12-20T16:25:19;11.70;99.90
5621;DHT22;2832;50.864;12.186;2023-12-20T16:28:11;11.70;99.90
5621;DHT22;2832;50.864;12.186;2023-12-20T16:30:46;11.70;99.90
5621;DHT22;2832;50.864;12.186;2023-12-20T16:33:17;11.60;99.90
5621;DHT22;2832;50.864;12.186;2023-12-20T16:35:48;11.70;99.90
5621;DHT22;2832;50.864;12.186;2023-12-20T16:38:16;11.70;99.90
5621;DHT22;2832;50.864;12.186;2023-12-20T16:40:44;11.70;99.90
5621;DHT22;2832;50.864;12.186;2023-12-20T16:43:15;11.70;99.90
5621;DHT22;2832;50.864;12.186;2023-12-20T16:45:47;11.70;99.90
5621;DHT22;2832;50.864;12.186;2023-12-20T16:48:36;11.70;99.90
5621;DHT22;2832;50.864;12.186;2023-12-20T16:51:05;11.70;99.90
5621;DHT22;2832;50.864;12.186;2023-12-20T16:54:03;11.70;99.90
5621;DHT22;2832;50.864;12.186;2023-12-20T16:56:33;11.70;99.90
5621;DHT22;2832;50.864;12.186;2023-12-20T16:59:06;11.70;99.90